<?xml version="1.0" encoding="UTF-8" standalone="no" ?>
<gpx xmlns="http://www.topografix.com/GPX/1/1" xmlns:xsi="http://www.w3.org/2001/XMLSchema-instance" xsi:schemaLocation="http://www.topografix.com/GPX/1/1 http://www.topografix.com/GPX/1/1/gpx.xsd" version="1.1" creator="VisuGPX - https://www.visugpx.com">
  <metadata>
    <name>Le Rumberg Steig (palatinat)</name>
    <desc><![CDATA[Belle randonnée au départ du château de Lutzelhardt. De magnifiques rochers et peu de dénivelé insurmontable. On peut aussi partir de Ludwigswinkel petit village du Palatinat. Le sigle à suivre est un carré orange avec l'inscription "Rumberg Steig". ]]></desc>
  </metadata>
  <trk>
    <name><![CDATA[lutzelhardt_palatinat]]></name>
    <trkseg>
      <trkpt lat="49.04291" lon="7.66437">
        <ele>276.52</ele>
        <time>2016-05-31T10:29:20Z</time>
      </trkpt>
      <trkpt lat="49.0428" lon="7.66444">
        <ele>263.06</ele>
        <time>2016-05-31T10:29:35Z</time>
      </trkpt>
      <trkpt lat="49.04276" lon="7.66444">
        <ele>261.62</ele>
        <time>2016-05-31T10:29:51Z</time>
      </trkpt>
      <trkpt lat="49.04275" lon="7.66444">
        <ele>261.62</ele>
        <time>2016-05-31T10:30:18Z</time>
      </trkpt>
      <trkpt lat="49.04272" lon="7.66445">
        <ele>260.65</ele>
        <time>2016-05-31T10:32:00Z</time>
      </trkpt>
      <trkpt lat="49.04274" lon="7.66446">
        <ele>258.25</ele>
        <time>2016-05-31T10:32:21Z</time>
      </trkpt>
      <trkpt lat="49.04276" lon="7.66443">
        <ele>256.33</ele>
        <time>2016-05-31T10:32:41Z</time>
      </trkpt>
      <trkpt lat="49.04276" lon="7.66442">
        <ele>256.81</ele>
        <time>2016-05-31T10:33:02Z</time>
      </trkpt>
      <trkpt lat="49.04275" lon="7.66443">
        <ele>259.21</ele>
        <time>2016-05-31T10:33:25Z</time>
      </trkpt>
      <trkpt lat="49.0428" lon="7.6644">
        <ele>261.14</ele>
        <time>2016-05-31T10:34:16Z</time>
      </trkpt>
      <trkpt lat="49.04276" lon="7.66446">
        <ele>261.62</ele>
        <time>2016-05-31T10:34:31Z</time>
      </trkpt>
      <trkpt lat="49.04278" lon="7.66444">
        <ele>262.1</ele>
        <time>2016-05-31T10:34:48Z</time>
      </trkpt>
      <trkpt lat="49.0428" lon="7.6644">
        <ele>262.58</ele>
        <time>2016-05-31T10:35:26Z</time>
      </trkpt>
      <trkpt lat="49.0428" lon="7.66443">
        <ele>261.14</ele>
        <time>2016-05-31T10:35:46Z</time>
      </trkpt>
      <trkpt lat="49.0428" lon="7.66443">
        <ele>257.77</ele>
        <time>2016-05-31T10:36:02Z</time>
      </trkpt>
      <trkpt lat="49.0429" lon="7.66438">
        <ele>256.81</ele>
        <time>2016-05-31T10:36:19Z</time>
      </trkpt>
      <trkpt lat="49.04296" lon="7.66434">
        <ele>256.33</ele>
        <time>2016-05-31T10:36:26Z</time>
      </trkpt>
      <trkpt lat="49.04315" lon="7.66421">
        <ele>255.85</ele>
        <time>2016-05-31T10:36:45Z</time>
      </trkpt>
      <trkpt lat="49.04324" lon="7.66413">
        <ele>254.89</ele>
        <time>2016-05-31T10:37:00Z</time>
      </trkpt>
      <trkpt lat="49.04336" lon="7.66403">
        <ele>255.85</ele>
        <time>2016-05-31T10:37:17Z</time>
      </trkpt>
      <trkpt lat="49.04347" lon="7.66395">
        <ele>255.85</ele>
        <time>2016-05-31T10:37:36Z</time>
      </trkpt>
      <trkpt lat="49.04362" lon="7.66384">
        <ele>255.85</ele>
        <time>2016-05-31T10:37:56Z</time>
      </trkpt>
      <trkpt lat="49.04392" lon="7.66363">
        <ele>260.65</ele>
        <time>2016-05-31T10:38:15Z</time>
      </trkpt>
      <trkpt lat="49.04411" lon="7.66352">
        <ele>264.02</ele>
        <time>2016-05-31T10:38:36Z</time>
      </trkpt>
      <trkpt lat="49.04433" lon="7.6634">
        <ele>264.02</ele>
        <time>2016-05-31T10:38:56Z</time>
      </trkpt>
      <trkpt lat="49.04443" lon="7.66327">
        <ele>265.94</ele>
        <time>2016-05-31T10:39:16Z</time>
      </trkpt>
      <trkpt lat="49.04467" lon="7.66318">
        <ele>264.98</ele>
        <time>2016-05-31T10:39:36Z</time>
      </trkpt>
      <trkpt lat="49.0448" lon="7.66314">
        <ele>261.62</ele>
        <time>2016-05-31T10:39:53Z</time>
      </trkpt>
      <trkpt lat="49.045" lon="7.6631">
        <ele>259.69</ele>
        <time>2016-05-31T10:40:13Z</time>
      </trkpt>
      <trkpt lat="49.04528" lon="7.66311">
        <ele>261.62</ele>
        <time>2016-05-31T10:40:33Z</time>
      </trkpt>
      <trkpt lat="49.04538" lon="7.66317">
        <ele>255.37</ele>
        <time>2016-05-31T10:40:50Z</time>
      </trkpt>
      <trkpt lat="49.04552" lon="7.66309">
        <ele>255.37</ele>
        <time>2016-05-31T10:42:16Z</time>
      </trkpt>
      <trkpt lat="49.0457" lon="7.66309">
        <ele>258.25</ele>
        <time>2016-05-31T10:42:34Z</time>
      </trkpt>
      <trkpt lat="49.04585" lon="7.6631">
        <ele>260.17</ele>
        <time>2016-05-31T10:42:52Z</time>
      </trkpt>
      <trkpt lat="49.04608" lon="7.66313">
        <ele>260.65</ele>
        <time>2016-05-31T10:43:11Z</time>
      </trkpt>
      <trkpt lat="49.04625" lon="7.66316">
        <ele>260.65</ele>
        <time>2016-05-31T10:43:29Z</time>
      </trkpt>
      <trkpt lat="49.04648" lon="7.66312">
        <ele>263.06</ele>
        <time>2016-05-31T10:43:47Z</time>
      </trkpt>
      <trkpt lat="49.0466" lon="7.66307">
        <ele>260.17</ele>
        <time>2016-05-31T10:44:02Z</time>
      </trkpt>
      <trkpt lat="49.04678" lon="7.66303">
        <ele>258.25</ele>
        <time>2016-05-31T10:44:21Z</time>
      </trkpt>
      <trkpt lat="49.04689" lon="7.66302">
        <ele>255.37</ele>
        <time>2016-05-31T10:44:37Z</time>
      </trkpt>
      <trkpt lat="49.04706" lon="7.663">
        <ele>251.52</ele>
        <time>2016-05-31T10:44:55Z</time>
      </trkpt>
      <trkpt lat="49.04724" lon="7.66303">
        <ele>245.27</ele>
        <time>2016-05-31T10:45:12Z</time>
      </trkpt>
      <trkpt lat="49.04751" lon="7.66295">
        <ele>251.52</ele>
        <time>2016-05-31T10:45:30Z</time>
      </trkpt>
      <trkpt lat="49.04769" lon="7.6629">
        <ele>255.85</ele>
        <time>2016-05-31T10:45:46Z</time>
      </trkpt>
      <trkpt lat="49.04775" lon="7.66291">
        <ele>255.37</ele>
        <time>2016-05-31T10:45:58Z</time>
      </trkpt>
      <trkpt lat="49.04789" lon="7.66286">
        <ele>259.69</ele>
        <time>2016-05-31T10:46:11Z</time>
      </trkpt>
      <trkpt lat="49.04799" lon="7.66288">
        <ele>257.77</ele>
        <time>2016-05-31T10:46:29Z</time>
      </trkpt>
      <trkpt lat="49.04808" lon="7.66285">
        <ele>258.25</ele>
        <time>2016-05-31T10:46:49Z</time>
      </trkpt>
      <trkpt lat="49.04821" lon="7.66277">
        <ele>261.14</ele>
        <time>2016-05-31T10:47:04Z</time>
      </trkpt>
      <trkpt lat="49.04836" lon="7.6627">
        <ele>265.94</ele>
        <time>2016-05-31T10:47:17Z</time>
      </trkpt>
      <trkpt lat="49.0485" lon="7.66267">
        <ele>265.46</ele>
        <time>2016-05-31T10:47:33Z</time>
      </trkpt>
      <trkpt lat="49.04872" lon="7.66258">
        <ele>272.19</ele>
        <time>2016-05-31T10:47:51Z</time>
      </trkpt>
      <trkpt lat="49.04893" lon="7.66248">
        <ele>274.11</ele>
        <time>2016-05-31T10:48:10Z</time>
      </trkpt>
      <trkpt lat="49.04914" lon="7.66239">
        <ele>275.56</ele>
        <time>2016-05-31T10:48:29Z</time>
      </trkpt>
      <trkpt lat="49.04941" lon="7.66222">
        <ele>276.04</ele>
        <time>2016-05-31T10:48:45Z</time>
      </trkpt>
      <trkpt lat="49.04962" lon="7.66212">
        <ele>274.11</ele>
        <time>2016-05-31T10:49:07Z</time>
      </trkpt>
      <trkpt lat="49.04977" lon="7.66202">
        <ele>274.11</ele>
        <time>2016-05-31T10:49:19Z</time>
      </trkpt>
      <trkpt lat="49.04996" lon="7.66191">
        <ele>272.19</ele>
        <time>2016-05-31T10:49:35Z</time>
      </trkpt>
      <trkpt lat="49.05015" lon="7.66179">
        <ele>270.27</ele>
        <time>2016-05-31T10:49:52Z</time>
      </trkpt>
      <trkpt lat="49.0503" lon="7.66168">
        <ele>270.27</ele>
        <time>2016-05-31T10:50:09Z</time>
      </trkpt>
      <trkpt lat="49.05042" lon="7.66153">
        <ele>271.23</ele>
        <time>2016-05-31T10:50:24Z</time>
      </trkpt>
      <trkpt lat="49.05068" lon="7.66126">
        <ele>271.71</ele>
        <time>2016-05-31T10:50:41Z</time>
      </trkpt>
      <trkpt lat="49.05076" lon="7.66114">
        <ele>274.59</ele>
        <time>2016-05-31T10:50:52Z</time>
      </trkpt>
      <trkpt lat="49.05087" lon="7.66094">
        <ele>280.36</ele>
        <time>2016-05-31T10:51:10Z</time>
      </trkpt>
      <trkpt lat="49.0509" lon="7.66089">
        <ele>281.8</ele>
        <time>2016-05-31T10:51:14Z</time>
      </trkpt>
      <trkpt lat="49.05091" lon="7.66087">
        <ele>282.28</ele>
        <time>2016-05-31T10:51:15Z</time>
      </trkpt>
      <trkpt lat="49.0509" lon="7.6608">
        <ele>285.17</ele>
        <time>2016-05-31T10:51:26Z</time>
      </trkpt>
      <trkpt lat="49.05093" lon="7.66069">
        <ele>284.69</ele>
        <time>2016-05-31T10:51:38Z</time>
      </trkpt>
      <trkpt lat="49.05102" lon="7.66047">
        <ele>284.69</ele>
        <time>2016-05-31T10:51:56Z</time>
      </trkpt>
      <trkpt lat="49.05121" lon="7.66013">
        <ele>282.77</ele>
        <time>2016-05-31T10:52:10Z</time>
      </trkpt>
      <trkpt lat="49.05126" lon="7.6599">
        <ele>282.28</ele>
        <time>2016-05-31T10:52:26Z</time>
      </trkpt>
      <trkpt lat="49.05138" lon="7.65959">
        <ele>282.28</ele>
        <time>2016-05-31T10:52:42Z</time>
      </trkpt>
      <trkpt lat="49.05143" lon="7.65936">
        <ele>284.21</ele>
        <time>2016-05-31T10:52:59Z</time>
      </trkpt>
      <trkpt lat="49.05145" lon="7.65924">
        <ele>285.65</ele>
        <time>2016-05-31T10:53:05Z</time>
      </trkpt>
      <trkpt lat="49.05145" lon="7.65922">
        <ele>286.13</ele>
        <time>2016-05-31T10:53:06Z</time>
      </trkpt>
      <trkpt lat="49.05146" lon="7.65919">
        <ele>286.61</ele>
        <time>2016-05-31T10:53:07Z</time>
      </trkpt>
      <trkpt lat="49.05147" lon="7.65917">
        <ele>286.61</ele>
        <time>2016-05-31T10:53:08Z</time>
      </trkpt>
      <trkpt lat="49.05148" lon="7.65914">
        <ele>287.09</ele>
        <time>2016-05-31T10:53:09Z</time>
      </trkpt>
      <trkpt lat="49.05149" lon="7.65912">
        <ele>287.57</ele>
        <time>2016-05-31T10:53:10Z</time>
      </trkpt>
      <trkpt lat="49.05157" lon="7.65881">
        <ele>293.34</ele>
        <time>2016-05-31T10:53:25Z</time>
      </trkpt>
      <trkpt lat="49.05158" lon="7.65879">
        <ele>293.34</ele>
        <time>2016-05-31T10:53:26Z</time>
      </trkpt>
      <trkpt lat="49.05161" lon="7.65875">
        <ele>293.82</ele>
        <time>2016-05-31T10:53:27Z</time>
      </trkpt>
      <trkpt lat="49.05163" lon="7.65873">
        <ele>294.3</ele>
        <time>2016-05-31T10:53:28Z</time>
      </trkpt>
      <trkpt lat="49.05164" lon="7.65871">
        <ele>294.3</ele>
        <time>2016-05-31T10:53:29Z</time>
      </trkpt>
      <trkpt lat="49.05165" lon="7.65868">
        <ele>294.78</ele>
        <time>2016-05-31T10:53:30Z</time>
      </trkpt>
      <trkpt lat="49.05166" lon="7.65865">
        <ele>295.26</ele>
        <time>2016-05-31T10:53:31Z</time>
      </trkpt>
      <trkpt lat="49.05176" lon="7.65827">
        <ele>302.47</ele>
        <time>2016-05-31T10:53:48Z</time>
      </trkpt>
      <trkpt lat="49.05179" lon="7.65804">
        <ele>305.84</ele>
        <time>2016-05-31T10:54:01Z</time>
      </trkpt>
      <trkpt lat="49.05178" lon="7.65786">
        <ele>302.47</ele>
        <time>2016-05-31T10:54:14Z</time>
      </trkpt>
      <trkpt lat="49.05182" lon="7.65772">
        <ele>289.97</ele>
        <time>2016-05-31T10:56:11Z</time>
      </trkpt>
      <trkpt lat="49.05182" lon="7.65788">
        <ele>286.61</ele>
        <time>2016-05-31T10:56:23Z</time>
      </trkpt>
      <trkpt lat="49.05181" lon="7.65805">
        <ele>283.73</ele>
        <time>2016-05-31T10:56:37Z</time>
      </trkpt>
      <trkpt lat="49.05181" lon="7.65836">
        <ele>283.25</ele>
        <time>2016-05-31T10:56:54Z</time>
      </trkpt>
      <trkpt lat="49.05193" lon="7.6587">
        <ele>280.36</ele>
        <time>2016-05-31T10:57:11Z</time>
      </trkpt>
      <trkpt lat="49.05202" lon="7.6589">
        <ele>278.92</ele>
        <time>2016-05-31T10:57:28Z</time>
      </trkpt>
      <trkpt lat="49.05209" lon="7.65909">
        <ele>280.36</ele>
        <time>2016-05-31T10:57:46Z</time>
      </trkpt>
      <trkpt lat="49.05204" lon="7.65925">
        <ele>288.05</ele>
        <time>2016-05-31T10:58:09Z</time>
      </trkpt>
      <trkpt lat="49.05204" lon="7.65927">
        <ele>289.49</ele>
        <time>2016-05-31T10:58:16Z</time>
      </trkpt>
      <trkpt lat="49.05204" lon="7.65929">
        <ele>289.49</ele>
        <time>2016-05-31T10:58:17Z</time>
      </trkpt>
      <trkpt lat="49.05205" lon="7.65932">
        <ele>289.49</ele>
        <time>2016-05-31T10:58:19Z</time>
      </trkpt>
      <trkpt lat="49.05209" lon="7.65942">
        <ele>291.42</ele>
        <time>2016-05-31T10:58:32Z</time>
      </trkpt>
      <trkpt lat="49.05214" lon="7.65953">
        <ele>299.59</ele>
        <time>2016-05-31T10:58:49Z</time>
      </trkpt>
      <trkpt lat="49.05223" lon="7.65965">
        <ele>300.55</ele>
        <time>2016-05-31T10:59:03Z</time>
      </trkpt>
      <trkpt lat="49.05223" lon="7.65987">
        <ele>297.18</ele>
        <time>2016-05-31T10:59:18Z</time>
      </trkpt>
      <trkpt lat="49.05231" lon="7.66015">
        <ele>291.42</ele>
        <time>2016-05-31T10:59:37Z</time>
      </trkpt>
      <trkpt lat="49.05242" lon="7.66043">
        <ele>286.13</ele>
        <time>2016-05-31T10:59:54Z</time>
      </trkpt>
      <trkpt lat="49.05244" lon="7.66043">
        <ele>285.65</ele>
        <time>2016-05-31T11:00:14Z</time>
      </trkpt>
      <trkpt lat="49.05252" lon="7.66057">
        <ele>284.21</ele>
        <time>2016-05-31T11:00:36Z</time>
      </trkpt>
      <trkpt lat="49.0526" lon="7.66078">
        <ele>278.92</ele>
        <time>2016-05-31T11:00:50Z</time>
      </trkpt>
      <trkpt lat="49.05265" lon="7.66097">
        <ele>273.63</ele>
        <time>2016-05-31T11:01:01Z</time>
      </trkpt>
      <trkpt lat="49.05273" lon="7.66118">
        <ele>268.83</ele>
        <time>2016-05-31T11:01:14Z</time>
      </trkpt>
      <trkpt lat="49.05273" lon="7.66148">
        <ele>268.83</ele>
        <time>2016-05-31T11:01:29Z</time>
      </trkpt>
      <trkpt lat="49.05274" lon="7.66151">
        <ele>268.35</ele>
        <time>2016-05-31T11:01:31Z</time>
      </trkpt>
      <trkpt lat="49.05288" lon="7.66182">
        <ele>267.38</ele>
        <time>2016-05-31T11:01:46Z</time>
      </trkpt>
      <trkpt lat="49.05293" lon="7.66201">
        <ele>267.38</ele>
        <time>2016-05-31T11:01:59Z</time>
      </trkpt>
      <trkpt lat="49.05302" lon="7.66227">
        <ele>268.83</ele>
        <time>2016-05-31T11:02:13Z</time>
      </trkpt>
      <trkpt lat="49.05311" lon="7.66255">
        <ele>269.79</ele>
        <time>2016-05-31T11:02:28Z</time>
      </trkpt>
      <trkpt lat="49.05324" lon="7.66283">
        <ele>269.79</ele>
        <time>2016-05-31T11:02:43Z</time>
      </trkpt>
      <trkpt lat="49.05327" lon="7.6628">
        <ele>268.83</ele>
        <time>2016-05-31T11:02:52Z</time>
      </trkpt>
      <trkpt lat="49.05325" lon="7.66283">
        <ele>268.35</ele>
        <time>2016-05-31T11:03:19Z</time>
      </trkpt>
      <trkpt lat="49.05331" lon="7.6631">
        <ele>268.83</ele>
        <time>2016-05-31T11:03:33Z</time>
      </trkpt>
      <trkpt lat="49.05336" lon="7.66324">
        <ele>269.79</ele>
        <time>2016-05-31T11:03:43Z</time>
      </trkpt>
      <trkpt lat="49.05343" lon="7.6635">
        <ele>269.79</ele>
        <time>2016-05-31T11:04:00Z</time>
      </trkpt>
      <trkpt lat="49.05356" lon="7.6638">
        <ele>271.71</ele>
        <time>2016-05-31T11:04:16Z</time>
      </trkpt>
      <trkpt lat="49.05358" lon="7.66388">
        <ele>272.67</ele>
        <time>2016-05-31T11:04:21Z</time>
      </trkpt>
      <trkpt lat="49.0537" lon="7.66425">
        <ele>272.19</ele>
        <time>2016-05-31T11:04:40Z</time>
      </trkpt>
      <trkpt lat="49.05379" lon="7.66457">
        <ele>270.75</ele>
        <time>2016-05-31T11:04:58Z</time>
      </trkpt>
      <trkpt lat="49.05392" lon="7.66486">
        <ele>270.27</ele>
        <time>2016-05-31T11:05:17Z</time>
      </trkpt>
      <trkpt lat="49.05394" lon="7.66487">
        <ele>270.75</ele>
        <time>2016-05-31T11:05:27Z</time>
      </trkpt>
      <trkpt lat="49.05392" lon="7.66484">
        <ele>270.27</ele>
        <time>2016-05-31T11:05:38Z</time>
      </trkpt>
      <trkpt lat="49.05393" lon="7.66488">
        <ele>270.75</ele>
        <time>2016-05-31T11:05:43Z</time>
      </trkpt>
      <trkpt lat="49.05401" lon="7.66517">
        <ele>268.83</ele>
        <time>2016-05-31T11:06:04Z</time>
      </trkpt>
      <trkpt lat="49.05413" lon="7.66544">
        <ele>266.42</ele>
        <time>2016-05-31T11:06:21Z</time>
      </trkpt>
      <trkpt lat="49.05418" lon="7.66554">
        <ele>267.38</ele>
        <time>2016-05-31T11:06:27Z</time>
      </trkpt>
      <trkpt lat="49.05444" lon="7.66586">
        <ele>268.83</ele>
        <time>2016-05-31T11:06:49Z</time>
      </trkpt>
      <trkpt lat="49.0546" lon="7.66603">
        <ele>268.83</ele>
        <time>2016-05-31T11:07:07Z</time>
      </trkpt>
      <trkpt lat="49.05466" lon="7.6662">
        <ele>264.98</ele>
        <time>2016-05-31T11:07:25Z</time>
      </trkpt>
      <trkpt lat="49.05488" lon="7.66647">
        <ele>265.46</ele>
        <time>2016-05-31T11:07:42Z</time>
      </trkpt>
      <trkpt lat="49.05505" lon="7.66666">
        <ele>264.5</ele>
        <time>2016-05-31T11:07:59Z</time>
      </trkpt>
      <trkpt lat="49.05524" lon="7.66689">
        <ele>261.14</ele>
        <time>2016-05-31T11:08:18Z</time>
      </trkpt>
      <trkpt lat="49.05543" lon="7.66712">
        <ele>259.69</ele>
        <time>2016-05-31T11:08:37Z</time>
      </trkpt>
      <trkpt lat="49.05561" lon="7.66738">
        <ele>258.73</ele>
        <time>2016-05-31T11:08:58Z</time>
      </trkpt>
      <trkpt lat="49.0558" lon="7.66763">
        <ele>264.02</ele>
        <time>2016-05-31T11:09:18Z</time>
      </trkpt>
      <trkpt lat="49.05583" lon="7.66767">
        <ele>266.9</ele>
        <time>2016-05-31T11:09:21Z</time>
      </trkpt>
      <trkpt lat="49.05588" lon="7.66775">
        <ele>267.38</ele>
        <time>2016-05-31T11:09:25Z</time>
      </trkpt>
      <trkpt lat="49.05603" lon="7.66796">
        <ele>267.86</ele>
        <time>2016-05-31T11:09:42Z</time>
      </trkpt>
      <trkpt lat="49.05622" lon="7.66822">
        <ele>266.9</ele>
        <time>2016-05-31T11:09:59Z</time>
      </trkpt>
      <trkpt lat="49.05636" lon="7.66842">
        <ele>268.83</ele>
        <time>2016-05-31T11:10:17Z</time>
      </trkpt>
      <trkpt lat="49.05654" lon="7.66863">
        <ele>270.27</ele>
        <time>2016-05-31T11:10:32Z</time>
      </trkpt>
      <trkpt lat="49.05661" lon="7.66871">
        <ele>271.71</ele>
        <time>2016-05-31T11:10:47Z</time>
      </trkpt>
      <trkpt lat="49.05672" lon="7.66891">
        <ele>270.75</ele>
        <time>2016-05-31T11:11:03Z</time>
      </trkpt>
      <trkpt lat="49.05692" lon="7.66916">
        <ele>266.42</ele>
        <time>2016-05-31T11:11:19Z</time>
      </trkpt>
      <trkpt lat="49.05704" lon="7.66937">
        <ele>263.54</ele>
        <time>2016-05-31T11:11:36Z</time>
      </trkpt>
      <trkpt lat="49.05705" lon="7.66938">
        <ele>263.54</ele>
        <time>2016-05-31T11:11:37Z</time>
      </trkpt>
      <trkpt lat="49.05722" lon="7.66957">
        <ele>258.73</ele>
        <time>2016-05-31T11:11:52Z</time>
      </trkpt>
      <trkpt lat="49.05733" lon="7.66984">
        <ele>259.21</ele>
        <time>2016-05-31T11:12:08Z</time>
      </trkpt>
      <trkpt lat="49.05741" lon="7.67003">
        <ele>259.69</ele>
        <time>2016-05-31T11:12:21Z</time>
      </trkpt>
      <trkpt lat="49.05752" lon="7.67024">
        <ele>262.1</ele>
        <time>2016-05-31T11:12:33Z</time>
      </trkpt>
      <trkpt lat="49.05763" lon="7.67046">
        <ele>263.06</ele>
        <time>2016-05-31T11:12:46Z</time>
      </trkpt>
      <trkpt lat="49.05774" lon="7.67065">
        <ele>262.1</ele>
        <time>2016-05-31T11:12:59Z</time>
      </trkpt>
      <trkpt lat="49.05786" lon="7.67087">
        <ele>261.62</ele>
        <time>2016-05-31T11:13:13Z</time>
      </trkpt>
      <trkpt lat="49.05802" lon="7.67102">
        <ele>261.14</ele>
        <time>2016-05-31T11:13:29Z</time>
      </trkpt>
      <trkpt lat="49.058" lon="7.67104">
        <ele>262.58</ele>
        <time>2016-05-31T11:13:48Z</time>
      </trkpt>
      <trkpt lat="49.05806" lon="7.67114">
        <ele>265.46</ele>
        <time>2016-05-31T11:14:02Z</time>
      </trkpt>
      <trkpt lat="49.05808" lon="7.67122">
        <ele>265.46</ele>
        <time>2016-05-31T11:14:14Z</time>
      </trkpt>
      <trkpt lat="49.05809" lon="7.67124">
        <ele>265.46</ele>
        <time>2016-05-31T11:14:15Z</time>
      </trkpt>
      <trkpt lat="49.05817" lon="7.67145">
        <ele>265.46</ele>
        <time>2016-05-31T11:14:28Z</time>
      </trkpt>
      <trkpt lat="49.0583" lon="7.6717">
        <ele>264.02</ele>
        <time>2016-05-31T11:14:44Z</time>
      </trkpt>
      <trkpt lat="49.05845" lon="7.6719">
        <ele>264.02</ele>
        <time>2016-05-31T11:15:01Z</time>
      </trkpt>
      <trkpt lat="49.05854" lon="7.67208">
        <ele>266.9</ele>
        <time>2016-05-31T11:15:11Z</time>
      </trkpt>
      <trkpt lat="49.05854" lon="7.67209">
        <ele>267.38</ele>
        <time>2016-05-31T11:15:12Z</time>
      </trkpt>
      <trkpt lat="49.0587" lon="7.67235">
        <ele>270.75</ele>
        <time>2016-05-31T11:15:28Z</time>
      </trkpt>
      <trkpt lat="49.05878" lon="7.67253">
        <ele>270.75</ele>
        <time>2016-05-31T11:15:41Z</time>
      </trkpt>
      <trkpt lat="49.0588" lon="7.67257">
        <ele>271.23</ele>
        <time>2016-05-31T11:15:45Z</time>
      </trkpt>
      <trkpt lat="49.05881" lon="7.67258">
        <ele>271.23</ele>
        <time>2016-05-31T11:15:46Z</time>
      </trkpt>
      <trkpt lat="49.05882" lon="7.67259">
        <ele>271.23</ele>
        <time>2016-05-31T11:15:47Z</time>
      </trkpt>
      <trkpt lat="49.05884" lon="7.67261">
        <ele>271.23</ele>
        <time>2016-05-31T11:15:48Z</time>
      </trkpt>
      <trkpt lat="49.05896" lon="7.67268">
        <ele>273.63</ele>
        <time>2016-05-31T11:15:58Z</time>
      </trkpt>
      <trkpt lat="49.05904" lon="7.67271">
        <ele>276.04</ele>
        <time>2016-05-31T11:16:07Z</time>
      </trkpt>
      <trkpt lat="49.05908" lon="7.67273">
        <ele>278.92</ele>
        <time>2016-05-31T11:16:14Z</time>
      </trkpt>
      <trkpt lat="49.05926" lon="7.6728">
        <ele>280.84</ele>
        <time>2016-05-31T11:16:28Z</time>
      </trkpt>
      <trkpt lat="49.05951" lon="7.67285">
        <ele>281.8</ele>
        <time>2016-05-31T11:16:45Z</time>
      </trkpt>
      <trkpt lat="49.0597" lon="7.67286">
        <ele>286.61</ele>
        <time>2016-05-31T11:17:01Z</time>
      </trkpt>
      <trkpt lat="49.05989" lon="7.67289">
        <ele>293.34</ele>
        <time>2016-05-31T11:17:16Z</time>
      </trkpt>
      <trkpt lat="49.0601" lon="7.67291">
        <ele>294.3</ele>
        <time>2016-05-31T11:17:32Z</time>
      </trkpt>
      <trkpt lat="49.06013" lon="7.67291">
        <ele>293.82</ele>
        <time>2016-05-31T11:17:33Z</time>
      </trkpt>
      <trkpt lat="49.06016" lon="7.67291">
        <ele>293.82</ele>
        <time>2016-05-31T11:17:34Z</time>
      </trkpt>
      <trkpt lat="49.0603" lon="7.67294">
        <ele>296.22</ele>
        <time>2016-05-31T11:17:46Z</time>
      </trkpt>
      <trkpt lat="49.06045" lon="7.67295">
        <ele>298.63</ele>
        <time>2016-05-31T11:17:59Z</time>
      </trkpt>
      <trkpt lat="49.06063" lon="7.67303">
        <ele>306.32</ele>
        <time>2016-05-31T11:18:16Z</time>
      </trkpt>
      <trkpt lat="49.06082" lon="7.67312">
        <ele>311.6</ele>
        <time>2016-05-31T11:18:34Z</time>
      </trkpt>
      <trkpt lat="49.06109" lon="7.6732">
        <ele>311.12</ele>
        <time>2016-05-31T11:18:52Z</time>
      </trkpt>
      <trkpt lat="49.06123" lon="7.67326">
        <ele>312.09</ele>
        <time>2016-05-31T11:19:04Z</time>
      </trkpt>
      <trkpt lat="49.06125" lon="7.67325">
        <ele>312.09</ele>
        <time>2016-05-31T11:19:05Z</time>
      </trkpt>
      <trkpt lat="49.06138" lon="7.67324">
        <ele>311.6</ele>
        <time>2016-05-31T11:19:18Z</time>
      </trkpt>
      <trkpt lat="49.06148" lon="7.67321">
        <ele>310.64</ele>
        <time>2016-05-31T11:19:33Z</time>
      </trkpt>
      <trkpt lat="49.06155" lon="7.67325">
        <ele>312.57</ele>
        <time>2016-05-31T11:19:45Z</time>
      </trkpt>
      <trkpt lat="49.06163" lon="7.67322">
        <ele>312.09</ele>
        <time>2016-05-31T11:19:52Z</time>
      </trkpt>
      <trkpt lat="49.06169" lon="7.67313">
        <ele>309.68</ele>
        <time>2016-05-31T11:20:05Z</time>
      </trkpt>
      <trkpt lat="49.0617" lon="7.67308">
        <ele>310.64</ele>
        <time>2016-05-31T11:20:21Z</time>
      </trkpt>
      <trkpt lat="49.06166" lon="7.67307">
        <ele>309.2</ele>
        <time>2016-05-31T11:20:37Z</time>
      </trkpt>
      <trkpt lat="49.06167" lon="7.67305">
        <ele>308.24</ele>
        <time>2016-05-31T11:20:53Z</time>
      </trkpt>
      <trkpt lat="49.06163" lon="7.67294">
        <ele>305.84</ele>
        <time>2016-05-31T11:21:14Z</time>
      </trkpt>
      <trkpt lat="49.0616" lon="7.67302">
        <ele>303.43</ele>
        <time>2016-05-31T11:21:34Z</time>
      </trkpt>
      <trkpt lat="49.06158" lon="7.67289">
        <ele>299.59</ele>
        <time>2016-05-31T11:21:56Z</time>
      </trkpt>
      <trkpt lat="49.06151" lon="7.67277">
        <ele>297.67</ele>
        <time>2016-05-31T11:22:14Z</time>
      </trkpt>
      <trkpt lat="49.06143" lon="7.67267">
        <ele>297.67</ele>
        <time>2016-05-31T11:22:30Z</time>
      </trkpt>
      <trkpt lat="49.06135" lon="7.67254">
        <ele>296.7</ele>
        <time>2016-05-31T11:22:45Z</time>
      </trkpt>
      <trkpt lat="49.06125" lon="7.67232">
        <ele>297.67</ele>
        <time>2016-05-31T11:23:02Z</time>
      </trkpt>
      <trkpt lat="49.06115" lon="7.67209">
        <ele>301.51</ele>
        <time>2016-05-31T11:23:17Z</time>
      </trkpt>
      <trkpt lat="49.06105" lon="7.6719">
        <ele>303.91</ele>
        <time>2016-05-31T11:23:31Z</time>
      </trkpt>
      <trkpt lat="49.06096" lon="7.67166">
        <ele>303.91</ele>
        <time>2016-05-31T11:23:47Z</time>
      </trkpt>
      <trkpt lat="49.06089" lon="7.67146">
        <ele>304.88</ele>
        <time>2016-05-31T11:24:00Z</time>
      </trkpt>
      <trkpt lat="49.06081" lon="7.67128">
        <ele>304.88</ele>
        <time>2016-05-31T11:24:14Z</time>
      </trkpt>
      <trkpt lat="49.06074" lon="7.67112">
        <ele>303.43</ele>
        <time>2016-05-31T11:24:27Z</time>
      </trkpt>
      <trkpt lat="49.06065" lon="7.67089">
        <ele>303.91</ele>
        <time>2016-05-31T11:24:44Z</time>
      </trkpt>
      <trkpt lat="49.06057" lon="7.6707">
        <ele>304.39</ele>
        <time>2016-05-31T11:25:00Z</time>
      </trkpt>
      <trkpt lat="49.06052" lon="7.67057">
        <ele>302.95</ele>
        <time>2016-05-31T11:25:11Z</time>
      </trkpt>
      <trkpt lat="49.06043" lon="7.67038">
        <ele>303.43</ele>
        <time>2016-05-31T11:25:27Z</time>
      </trkpt>
      <trkpt lat="49.06035" lon="7.67029">
        <ele>309.68</ele>
        <time>2016-05-31T11:25:42Z</time>
      </trkpt>
      <trkpt lat="49.06035" lon="7.67016">
        <ele>308.72</ele>
        <time>2016-05-31T11:25:57Z</time>
      </trkpt>
      <trkpt lat="49.06027" lon="7.67001">
        <ele>308.24</ele>
        <time>2016-05-31T11:26:12Z</time>
      </trkpt>
      <trkpt lat="49.0602" lon="7.66983">
        <ele>307.28</ele>
        <time>2016-05-31T11:26:26Z</time>
      </trkpt>
      <trkpt lat="49.06012" lon="7.66968">
        <ele>308.72</ele>
        <time>2016-05-31T11:26:42Z</time>
      </trkpt>
      <trkpt lat="49.06004" lon="7.66958">
        <ele>308.72</ele>
        <time>2016-05-31T11:26:58Z</time>
      </trkpt>
      <trkpt lat="49.05999" lon="7.66942">
        <ele>309.2</ele>
        <time>2016-05-31T11:27:12Z</time>
      </trkpt>
      <trkpt lat="49.05996" lon="7.66926">
        <ele>309.68</ele>
        <time>2016-05-31T11:27:27Z</time>
      </trkpt>
      <trkpt lat="49.05981" lon="7.66907">
        <ele>318.33</ele>
        <time>2016-05-31T11:27:37Z</time>
      </trkpt>
      <trkpt lat="49.05972" lon="7.66885">
        <ele>319.3</ele>
        <time>2016-05-31T11:27:56Z</time>
      </trkpt>
      <trkpt lat="49.05957" lon="7.66858">
        <ele>319.78</ele>
        <time>2016-05-31T11:28:15Z</time>
      </trkpt>
      <trkpt lat="49.0595" lon="7.66836">
        <ele>320.26</ele>
        <time>2016-05-31T11:28:38Z</time>
      </trkpt>
      <trkpt lat="49.0594" lon="7.66814">
        <ele>319.78</ele>
        <time>2016-05-31T11:28:54Z</time>
      </trkpt>
      <trkpt lat="49.0593" lon="7.6679">
        <ele>321.22</ele>
        <time>2016-05-31T11:29:14Z</time>
      </trkpt>
      <trkpt lat="49.05921" lon="7.66761">
        <ele>323.14</ele>
        <time>2016-05-31T11:29:35Z</time>
      </trkpt>
      <trkpt lat="49.05905" lon="7.66726">
        <ele>329.87</ele>
        <time>2016-05-31T11:29:53Z</time>
      </trkpt>
      <trkpt lat="49.05897" lon="7.66706">
        <ele>331.31</ele>
        <time>2016-05-31T11:30:11Z</time>
      </trkpt>
      <trkpt lat="49.05891" lon="7.66688">
        <ele>332.27</ele>
        <time>2016-05-31T11:30:29Z</time>
      </trkpt>
      <trkpt lat="49.05885" lon="7.66676">
        <ele>329.39</ele>
        <time>2016-05-31T11:30:44Z</time>
      </trkpt>
      <trkpt lat="49.05879" lon="7.66657">
        <ele>325.54</ele>
        <time>2016-05-31T11:31:02Z</time>
      </trkpt>
      <trkpt lat="49.05872" lon="7.66633">
        <ele>321.7</ele>
        <time>2016-05-31T11:31:23Z</time>
      </trkpt>
      <trkpt lat="49.05866" lon="7.66614">
        <ele>322.66</ele>
        <time>2016-05-31T11:31:38Z</time>
      </trkpt>
      <trkpt lat="49.05856" lon="7.66587">
        <ele>321.7</ele>
        <time>2016-05-31T11:32:01Z</time>
      </trkpt>
      <trkpt lat="49.05847" lon="7.66562">
        <ele>323.62</ele>
        <time>2016-05-31T11:32:21Z</time>
      </trkpt>
      <trkpt lat="49.05841" lon="7.66534">
        <ele>325.54</ele>
        <time>2016-05-31T11:32:41Z</time>
      </trkpt>
      <trkpt lat="49.05835" lon="7.66507">
        <ele>326.99</ele>
        <time>2016-05-31T11:33:00Z</time>
      </trkpt>
      <trkpt lat="49.05831" lon="7.66481">
        <ele>330.83</ele>
        <time>2016-05-31T11:33:17Z</time>
      </trkpt>
      <trkpt lat="49.05826" lon="7.6645">
        <ele>337.56</ele>
        <time>2016-05-31T11:33:35Z</time>
      </trkpt>
      <trkpt lat="49.05819" lon="7.66423">
        <ele>340.44</ele>
        <time>2016-05-31T11:33:54Z</time>
      </trkpt>
      <trkpt lat="49.05813" lon="7.66399">
        <ele>343.81</ele>
        <time>2016-05-31T11:34:11Z</time>
      </trkpt>
      <trkpt lat="49.05819" lon="7.66404">
        <ele>357.75</ele>
        <time>2016-05-31T11:35:00Z</time>
      </trkpt>
      <trkpt lat="49.05822" lon="7.66402">
        <ele>356.79</ele>
        <time>2016-05-31T11:35:16Z</time>
      </trkpt>
      <trkpt lat="49.0583" lon="7.66397">
        <ele>357.75</ele>
        <time>2016-05-31T11:35:33Z</time>
      </trkpt>
      <trkpt lat="49.05834" lon="7.664">
        <ele>359.67</ele>
        <time>2016-05-31T11:35:50Z</time>
      </trkpt>
      <trkpt lat="49.05847" lon="7.66396">
        <ele>360.15</ele>
        <time>2016-05-31T11:36:08Z</time>
      </trkpt>
      <trkpt lat="49.05845" lon="7.66372">
        <ele>363.52</ele>
        <time>2016-05-31T11:36:26Z</time>
      </trkpt>
      <trkpt lat="49.05838" lon="7.66351">
        <ele>362.07</ele>
        <time>2016-05-31T11:36:44Z</time>
      </trkpt>
      <trkpt lat="49.05829" lon="7.6633">
        <ele>363.52</ele>
        <time>2016-05-31T11:37:00Z</time>
      </trkpt>
      <trkpt lat="49.05822" lon="7.66307">
        <ele>364.96</ele>
        <time>2016-05-31T11:37:19Z</time>
      </trkpt>
      <trkpt lat="49.05818" lon="7.6628">
        <ele>365.92</ele>
        <time>2016-05-31T11:37:38Z</time>
      </trkpt>
      <trkpt lat="49.05813" lon="7.66257">
        <ele>365.44</ele>
        <time>2016-05-31T11:37:54Z</time>
      </trkpt>
      <trkpt lat="49.05806" lon="7.66246">
        <ele>368.8</ele>
        <time>2016-05-31T11:38:09Z</time>
      </trkpt>
      <trkpt lat="49.05804" lon="7.66248">
        <ele>377.94</ele>
        <time>2016-05-31T11:40:59Z</time>
      </trkpt>
      <trkpt lat="49.05808" lon="7.66228">
        <ele>381.78</ele>
        <time>2016-05-31T11:44:01Z</time>
      </trkpt>
      <trkpt lat="49.05815" lon="7.66199">
        <ele>380.34</ele>
        <time>2016-05-31T11:44:18Z</time>
      </trkpt>
      <trkpt lat="49.05812" lon="7.66168">
        <ele>382.26</ele>
        <time>2016-05-31T11:44:33Z</time>
      </trkpt>
      <trkpt lat="49.0581" lon="7.66144">
        <ele>382.26</ele>
        <time>2016-05-31T11:44:50Z</time>
      </trkpt>
      <trkpt lat="49.05805" lon="7.6612">
        <ele>380.82</ele>
        <time>2016-05-31T11:45:03Z</time>
      </trkpt>
      <trkpt lat="49.05803" lon="7.66091">
        <ele>380.34</ele>
        <time>2016-05-31T11:45:20Z</time>
      </trkpt>
      <trkpt lat="49.05803" lon="7.6608">
        <ele>380.82</ele>
        <time>2016-05-31T11:45:33Z</time>
      </trkpt>
      <trkpt lat="49.058" lon="7.66059">
        <ele>378.9</ele>
        <time>2016-05-31T11:45:50Z</time>
      </trkpt>
      <trkpt lat="49.05796" lon="7.66023">
        <ele>377.45</ele>
        <time>2016-05-31T11:46:04Z</time>
      </trkpt>
      <trkpt lat="49.05787" lon="7.65982">
        <ele>380.34</ele>
        <time>2016-05-31T11:46:22Z</time>
      </trkpt>
      <trkpt lat="49.0578" lon="7.6597">
        <ele>377.94</ele>
        <time>2016-05-31T11:46:40Z</time>
      </trkpt>
      <trkpt lat="49.05776" lon="7.6596">
        <ele>379.38</ele>
        <time>2016-05-31T11:46:55Z</time>
      </trkpt>
      <trkpt lat="49.05771" lon="7.65947">
        <ele>377.45</ele>
        <time>2016-05-31T11:47:10Z</time>
      </trkpt>
      <trkpt lat="49.05761" lon="7.65933">
        <ele>375.53</ele>
        <time>2016-05-31T11:47:25Z</time>
      </trkpt>
      <trkpt lat="49.05752" lon="7.65915">
        <ele>372.65</ele>
        <time>2016-05-31T11:47:41Z</time>
      </trkpt>
      <trkpt lat="49.05746" lon="7.659">
        <ele>371.21</ele>
        <time>2016-05-31T11:47:54Z</time>
      </trkpt>
      <trkpt lat="49.05734" lon="7.65878">
        <ele>365.92</ele>
        <time>2016-05-31T11:48:10Z</time>
      </trkpt>
      <trkpt lat="49.05724" lon="7.65852">
        <ele>366.88</ele>
        <time>2016-05-31T11:48:24Z</time>
      </trkpt>
      <trkpt lat="49.05716" lon="7.65839">
        <ele>365.92</ele>
        <time>2016-05-31T11:48:36Z</time>
      </trkpt>
      <trkpt lat="49.05703" lon="7.65817">
        <ele>364.48</ele>
        <time>2016-05-31T11:48:53Z</time>
      </trkpt>
      <trkpt lat="49.05695" lon="7.65794">
        <ele>365.92</ele>
        <time>2016-05-31T11:49:09Z</time>
      </trkpt>
      <trkpt lat="49.05686" lon="7.65773">
        <ele>365.92</ele>
        <time>2016-05-31T11:49:26Z</time>
      </trkpt>
      <trkpt lat="49.05677" lon="7.65752">
        <ele>367.36</ele>
        <time>2016-05-31T11:49:43Z</time>
      </trkpt>
      <trkpt lat="49.05666" lon="7.65729">
        <ele>378.9</ele>
        <time>2016-05-31T11:51:05Z</time>
      </trkpt>
      <trkpt lat="49.05655" lon="7.65701">
        <ele>379.86</ele>
        <time>2016-05-31T11:51:24Z</time>
      </trkpt>
      <trkpt lat="49.05648" lon="7.65687">
        <ele>377.45</ele>
        <time>2016-05-31T11:51:39Z</time>
      </trkpt>
      <trkpt lat="49.05643" lon="7.65677">
        <ele>376.49</ele>
        <time>2016-05-31T11:51:55Z</time>
      </trkpt>
      <trkpt lat="49.05631" lon="7.65659">
        <ele>376.01</ele>
        <time>2016-05-31T11:52:13Z</time>
      </trkpt>
      <trkpt lat="49.05622" lon="7.65647">
        <ele>376.97</ele>
        <time>2016-05-31T11:52:28Z</time>
      </trkpt>
      <trkpt lat="49.05627" lon="7.65683">
        <ele>365.44</ele>
        <time>2016-05-31T11:56:22Z</time>
      </trkpt>
      <trkpt lat="49.05633" lon="7.65714">
        <ele>369.28</ele>
        <time>2016-05-31T11:56:37Z</time>
      </trkpt>
      <trkpt lat="49.05636" lon="7.65729">
        <ele>364</ele>
        <time>2016-05-31T11:56:54Z</time>
      </trkpt>
      <trkpt lat="49.05646" lon="7.65761">
        <ele>362.55</ele>
        <time>2016-05-31T11:57:09Z</time>
      </trkpt>
      <trkpt lat="49.05646" lon="7.65782">
        <ele>364.48</ele>
        <time>2016-05-31T11:57:23Z</time>
      </trkpt>
      <trkpt lat="49.05653" lon="7.65822">
        <ele>367.84</ele>
        <time>2016-05-31T11:57:41Z</time>
      </trkpt>
      <trkpt lat="49.0566" lon="7.65851">
        <ele>367.84</ele>
        <time>2016-05-31T11:57:59Z</time>
      </trkpt>
      <trkpt lat="49.05668" lon="7.6588">
        <ele>364</ele>
        <time>2016-05-31T11:58:18Z</time>
      </trkpt>
      <trkpt lat="49.05674" lon="7.65906">
        <ele>365.92</ele>
        <time>2016-05-31T11:58:34Z</time>
      </trkpt>
      <trkpt lat="49.05678" lon="7.65919">
        <ele>371.21</ele>
        <time>2016-05-31T11:58:43Z</time>
      </trkpt>
      <trkpt lat="49.05687" lon="7.65942">
        <ele>368.8</ele>
        <time>2016-05-31T11:59:00Z</time>
      </trkpt>
      <trkpt lat="49.05689" lon="7.65961">
        <ele>371.69</ele>
        <time>2016-05-31T11:59:14Z</time>
      </trkpt>
      <trkpt lat="49.05689" lon="7.6598">
        <ele>376.49</ele>
        <time>2016-05-31T11:59:30Z</time>
      </trkpt>
      <trkpt lat="49.05693" lon="7.66003">
        <ele>381.3</ele>
        <time>2016-05-31T11:59:45Z</time>
      </trkpt>
      <trkpt lat="49.05698" lon="7.66026">
        <ele>381.3</ele>
        <time>2016-05-31T11:59:54Z</time>
      </trkpt>
      <trkpt lat="49.057" lon="7.6605">
        <ele>383.7</ele>
        <time>2016-05-31T12:00:09Z</time>
      </trkpt>
      <trkpt lat="49.05694" lon="7.66062">
        <ele>384.18</ele>
        <time>2016-05-31T12:00:24Z</time>
      </trkpt>
      <trkpt lat="49.0569" lon="7.66061">
        <ele>383.22</ele>
        <time>2016-05-31T12:00:28Z</time>
      </trkpt>
      <trkpt lat="49.05673" lon="7.66058">
        <ele>379.86</ele>
        <time>2016-05-31T12:00:44Z</time>
      </trkpt>
      <trkpt lat="49.05653" lon="7.66052">
        <ele>374.57</ele>
        <time>2016-05-31T12:01:01Z</time>
      </trkpt>
      <trkpt lat="49.05651" lon="7.66056">
        <ele>368.32</ele>
        <time>2016-05-31T12:01:31Z</time>
      </trkpt>
      <trkpt lat="49.05638" lon="7.6606">
        <ele>367.36</ele>
        <time>2016-05-31T12:01:51Z</time>
      </trkpt>
      <trkpt lat="49.05626" lon="7.66065">
        <ele>364.48</ele>
        <time>2016-05-31T12:02:07Z</time>
      </trkpt>
      <trkpt lat="49.05623" lon="7.66088">
        <ele>358.23</ele>
        <time>2016-05-31T12:02:27Z</time>
      </trkpt>
      <trkpt lat="49.05607" lon="7.66107">
        <ele>358.71</ele>
        <time>2016-05-31T12:02:47Z</time>
      </trkpt>
      <trkpt lat="49.05591" lon="7.66117">
        <ele>359.67</ele>
        <time>2016-05-31T12:03:05Z</time>
      </trkpt>
      <trkpt lat="49.05579" lon="7.66129">
        <ele>360.63</ele>
        <time>2016-05-31T12:03:26Z</time>
      </trkpt>
      <trkpt lat="49.0557" lon="7.66149">
        <ele>356.79</ele>
        <time>2016-05-31T12:03:45Z</time>
      </trkpt>
      <trkpt lat="49.05552" lon="7.6617">
        <ele>354.86</ele>
        <time>2016-05-31T12:04:03Z</time>
      </trkpt>
      <trkpt lat="49.05541" lon="7.66158">
        <ele>354.38</ele>
        <time>2016-05-31T12:04:20Z</time>
      </trkpt>
      <trkpt lat="49.0553" lon="7.66136">
        <ele>353.9</ele>
        <time>2016-05-31T12:04:37Z</time>
      </trkpt>
      <trkpt lat="49.05526" lon="7.66112">
        <ele>356.79</ele>
        <time>2016-05-31T12:04:55Z</time>
      </trkpt>
      <trkpt lat="49.05523" lon="7.66085">
        <ele>361.59</ele>
        <time>2016-05-31T12:05:11Z</time>
      </trkpt>
      <trkpt lat="49.05518" lon="7.66077">
        <ele>361.11</ele>
        <time>2016-05-31T12:05:26Z</time>
      </trkpt>
      <trkpt lat="49.05511" lon="7.66068">
        <ele>360.63</ele>
        <time>2016-05-31T12:05:42Z</time>
      </trkpt>
      <trkpt lat="49.05508" lon="7.66059">
        <ele>361.11</ele>
        <time>2016-05-31T12:06:08Z</time>
      </trkpt>
      <trkpt lat="49.05513" lon="7.66075">
        <ele>364.96</ele>
        <time>2016-05-31T12:06:27Z</time>
      </trkpt>
      <trkpt lat="49.05511" lon="7.66065">
        <ele>365.92</ele>
        <time>2016-05-31T12:06:42Z</time>
      </trkpt>
      <trkpt lat="49.05502" lon="7.66051">
        <ele>366.4</ele>
        <time>2016-05-31T12:07:00Z</time>
      </trkpt>
      <trkpt lat="49.05496" lon="7.66041">
        <ele>365.44</ele>
        <time>2016-05-31T12:07:14Z</time>
      </trkpt>
      <trkpt lat="49.05484" lon="7.66029">
        <ele>358.71</ele>
        <time>2016-05-31T12:09:22Z</time>
      </trkpt>
      <trkpt lat="49.0548" lon="7.66022">
        <ele>362.55</ele>
        <time>2016-05-31T12:09:39Z</time>
      </trkpt>
      <trkpt lat="49.05477" lon="7.66018">
        <ele>364.48</ele>
        <time>2016-05-31T12:09:58Z</time>
      </trkpt>
      <trkpt lat="49.05478" lon="7.66018">
        <ele>369.76</ele>
        <time>2016-05-31T12:10:18Z</time>
      </trkpt>
      <trkpt lat="49.05472" lon="7.6601">
        <ele>363.52</ele>
        <time>2016-05-31T12:10:34Z</time>
      </trkpt>
      <trkpt lat="49.05461" lon="7.66018">
        <ele>358.23</ele>
        <time>2016-05-31T12:10:53Z</time>
      </trkpt>
      <trkpt lat="49.05457" lon="7.66024">
        <ele>358.71</ele>
        <time>2016-05-31T12:11:10Z</time>
      </trkpt>
      <trkpt lat="49.05453" lon="7.66018">
        <ele>358.23</ele>
        <time>2016-05-31T12:11:26Z</time>
      </trkpt>
      <trkpt lat="49.05445" lon="7.66002">
        <ele>356.79</ele>
        <time>2016-05-31T12:11:42Z</time>
      </trkpt>
      <trkpt lat="49.05444" lon="7.65986">
        <ele>356.31</ele>
        <time>2016-05-31T12:11:55Z</time>
      </trkpt>
      <trkpt lat="49.05437" lon="7.65985">
        <ele>351.02</ele>
        <time>2016-05-31T12:13:11Z</time>
      </trkpt>
      <trkpt lat="49.05435" lon="7.65987">
        <ele>350.54</ele>
        <time>2016-05-31T12:13:23Z</time>
      </trkpt>
      <trkpt lat="49.0543" lon="7.65977">
        <ele>348.13</ele>
        <time>2016-05-31T12:13:38Z</time>
      </trkpt>
      <trkpt lat="49.0543" lon="7.65966">
        <ele>345.73</ele>
        <time>2016-05-31T12:13:51Z</time>
      </trkpt>
      <trkpt lat="49.05431" lon="7.65959">
        <ele>342.85</ele>
        <time>2016-05-31T12:14:10Z</time>
      </trkpt>
      <trkpt lat="49.05423" lon="7.65956">
        <ele>334.2</ele>
        <time>2016-05-31T12:14:25Z</time>
      </trkpt>
      <trkpt lat="49.05416" lon="7.65947">
        <ele>332.27</ele>
        <time>2016-05-31T12:14:41Z</time>
      </trkpt>
      <trkpt lat="49.05412" lon="7.6594">
        <ele>328.91</ele>
        <time>2016-05-31T12:14:56Z</time>
      </trkpt>
      <trkpt lat="49.05407" lon="7.65928">
        <ele>328.43</ele>
        <time>2016-05-31T12:15:14Z</time>
      </trkpt>
      <trkpt lat="49.05399" lon="7.65916">
        <ele>326.99</ele>
        <time>2016-05-31T12:15:30Z</time>
      </trkpt>
      <trkpt lat="49.05393" lon="7.65891">
        <ele>326.99</ele>
        <time>2016-05-31T12:15:48Z</time>
      </trkpt>
      <trkpt lat="49.05394" lon="7.65889">
        <ele>329.39</ele>
        <time>2016-05-31T12:16:10Z</time>
      </trkpt>
      <trkpt lat="49.05391" lon="7.65891">
        <ele>327.95</ele>
        <time>2016-05-31T12:16:29Z</time>
      </trkpt>
      <trkpt lat="49.05381" lon="7.65899">
        <ele>329.87</ele>
        <time>2016-05-31T12:16:45Z</time>
      </trkpt>
      <trkpt lat="49.05368" lon="7.659">
        <ele>328.43</ele>
        <time>2016-05-31T12:17:01Z</time>
      </trkpt>
      <trkpt lat="49.0536" lon="7.65896">
        <ele>326.02</ele>
        <time>2016-05-31T12:17:14Z</time>
      </trkpt>
      <trkpt lat="49.05345" lon="7.65881">
        <ele>326.5</ele>
        <time>2016-05-31T12:17:30Z</time>
      </trkpt>
      <trkpt lat="49.05335" lon="7.6586">
        <ele>328.91</ele>
        <time>2016-05-31T12:17:45Z</time>
      </trkpt>
      <trkpt lat="49.0533" lon="7.65845">
        <ele>326.5</ele>
        <time>2016-05-31T12:18:03Z</time>
      </trkpt>
      <trkpt lat="49.05333" lon="7.65843">
        <ele>323.14</ele>
        <time>2016-05-31T12:18:24Z</time>
      </trkpt>
      <trkpt lat="49.05333" lon="7.65837">
        <ele>322.18</ele>
        <time>2016-05-31T12:18:28Z</time>
      </trkpt>
      <trkpt lat="49.05332" lon="7.6581">
        <ele>321.7</ele>
        <time>2016-05-31T12:18:42Z</time>
      </trkpt>
      <trkpt lat="49.05335" lon="7.658">
        <ele>322.66</ele>
        <time>2016-05-31T12:18:56Z</time>
      </trkpt>
      <trkpt lat="49.05336" lon="7.65799">
        <ele>323.62</ele>
        <time>2016-05-31T12:18:59Z</time>
      </trkpt>
      <trkpt lat="49.05342" lon="7.65793">
        <ele>323.14</ele>
        <time>2016-05-31T12:19:06Z</time>
      </trkpt>
      <trkpt lat="49.05345" lon="7.65789">
        <ele>325.06</ele>
        <time>2016-05-31T12:19:22Z</time>
      </trkpt>
      <trkpt lat="49.05345" lon="7.65787">
        <ele>326.5</ele>
        <time>2016-05-31T12:19:34Z</time>
      </trkpt>
      <trkpt lat="49.05345" lon="7.65787">
        <ele>327.47</ele>
        <time>2016-05-31T12:20:00Z</time>
      </trkpt>
      <trkpt lat="49.05354" lon="7.65796">
        <ele>326.99</ele>
        <time>2016-05-31T12:20:16Z</time>
      </trkpt>
      <trkpt lat="49.05353" lon="7.658">
        <ele>326.99</ele>
        <time>2016-05-31T12:20:29Z</time>
      </trkpt>
      <trkpt lat="49.05358" lon="7.65804">
        <ele>326.5</ele>
        <time>2016-05-31T12:20:40Z</time>
      </trkpt>
      <trkpt lat="49.05363" lon="7.65814">
        <ele>326.02</ele>
        <time>2016-05-31T12:20:49Z</time>
      </trkpt>
      <trkpt lat="49.05367" lon="7.65824">
        <ele>326.02</ele>
        <time>2016-05-31T12:20:53Z</time>
      </trkpt>
      <trkpt lat="49.05378" lon="7.65841">
        <ele>327.95</ele>
        <time>2016-05-31T12:21:09Z</time>
      </trkpt>
      <trkpt lat="49.0539" lon="7.65864">
        <ele>325.54</ele>
        <time>2016-05-31T12:21:25Z</time>
      </trkpt>
      <trkpt lat="49.05397" lon="7.65873">
        <ele>324.1</ele>
        <time>2016-05-31T12:21:43Z</time>
      </trkpt>
      <trkpt lat="49.05396" lon="7.65882">
        <ele>324.58</ele>
        <time>2016-05-31T12:22:06Z</time>
      </trkpt>
      <trkpt lat="49.05403" lon="7.65879">
        <ele>324.58</ele>
        <time>2016-05-31T12:22:29Z</time>
      </trkpt>
      <trkpt lat="49.05408" lon="7.65876">
        <ele>321.7</ele>
        <time>2016-05-31T12:22:52Z</time>
      </trkpt>
      <trkpt lat="49.05428" lon="7.65887">
        <ele>319.78</ele>
        <time>2016-05-31T12:23:15Z</time>
      </trkpt>
      <trkpt lat="49.05449" lon="7.65884">
        <ele>326.02</ele>
        <time>2016-05-31T12:23:34Z</time>
      </trkpt>
      <trkpt lat="49.05459" lon="7.65889">
        <ele>326.02</ele>
        <time>2016-05-31T12:23:50Z</time>
      </trkpt>
      <trkpt lat="49.05466" lon="7.65892">
        <ele>325.06</ele>
        <time>2016-05-31T12:23:58Z</time>
      </trkpt>
      <trkpt lat="49.05471" lon="7.65896">
        <ele>325.06</ele>
        <time>2016-05-31T12:24:02Z</time>
      </trkpt>
      <trkpt lat="49.05487" lon="7.65907">
        <ele>325.06</ele>
        <time>2016-05-31T12:24:16Z</time>
      </trkpt>
      <trkpt lat="49.05513" lon="7.65931">
        <ele>328.91</ele>
        <time>2016-05-31T12:24:33Z</time>
      </trkpt>
      <trkpt lat="49.05531" lon="7.65942">
        <ele>329.39</ele>
        <time>2016-05-31T12:24:46Z</time>
      </trkpt>
      <trkpt lat="49.05546" lon="7.65951">
        <ele>330.35</ele>
        <time>2016-05-31T12:24:59Z</time>
      </trkpt>
      <trkpt lat="49.05556" lon="7.65961">
        <ele>329.87</ele>
        <time>2016-05-31T12:25:11Z</time>
      </trkpt>
      <trkpt lat="49.0557" lon="7.65963">
        <ele>329.87</ele>
        <time>2016-05-31T12:25:23Z</time>
      </trkpt>
      <trkpt lat="49.05571" lon="7.65962">
        <ele>330.35</ele>
        <time>2016-05-31T12:25:24Z</time>
      </trkpt>
      <trkpt lat="49.05573" lon="7.65961">
        <ele>330.35</ele>
        <time>2016-05-31T12:25:25Z</time>
      </trkpt>
      <trkpt lat="49.05575" lon="7.65959">
        <ele>330.83</ele>
        <time>2016-05-31T12:25:26Z</time>
      </trkpt>
      <trkpt lat="49.05576" lon="7.65958">
        <ele>330.83</ele>
        <time>2016-05-31T12:25:27Z</time>
      </trkpt>
      <trkpt lat="49.05583" lon="7.6595">
        <ele>332.75</ele>
        <time>2016-05-31T12:25:35Z</time>
      </trkpt>
      <trkpt lat="49.05593" lon="7.65911">
        <ele>330.35</ele>
        <time>2016-05-31T12:25:50Z</time>
      </trkpt>
      <trkpt lat="49.05594" lon="7.65885">
        <ele>325.54</ele>
        <time>2016-05-31T12:26:04Z</time>
      </trkpt>
      <trkpt lat="49.05592" lon="7.65857">
        <ele>323.14</ele>
        <time>2016-05-31T12:26:20Z</time>
      </trkpt>
      <trkpt lat="49.05586" lon="7.65827">
        <ele>322.66</ele>
        <time>2016-05-31T12:26:36Z</time>
      </trkpt>
      <trkpt lat="49.05584" lon="7.65791">
        <ele>319.78</ele>
        <time>2016-05-31T12:26:53Z</time>
      </trkpt>
      <trkpt lat="49.05572" lon="7.6577">
        <ele>325.54</ele>
        <time>2016-05-31T12:27:09Z</time>
      </trkpt>
      <trkpt lat="49.0557" lon="7.65757">
        <ele>326.99</ele>
        <time>2016-05-31T12:27:17Z</time>
      </trkpt>
      <trkpt lat="49.05564" lon="7.65718">
        <ele>327.95</ele>
        <time>2016-05-31T12:27:32Z</time>
      </trkpt>
      <trkpt lat="49.05558" lon="7.65678">
        <ele>328.91</ele>
        <time>2016-05-31T12:27:48Z</time>
      </trkpt>
      <trkpt lat="49.05554" lon="7.65652">
        <ele>325.06</ele>
        <time>2016-05-31T12:28:01Z</time>
      </trkpt>
      <trkpt lat="49.05556" lon="7.65636">
        <ele>321.22</ele>
        <time>2016-05-31T12:28:13Z</time>
      </trkpt>
      <trkpt lat="49.05553" lon="7.65609">
        <ele>321.7</ele>
        <time>2016-05-31T12:28:26Z</time>
      </trkpt>
      <trkpt lat="49.05557" lon="7.65582">
        <ele>326.5</ele>
        <time>2016-05-31T12:28:42Z</time>
      </trkpt>
      <trkpt lat="49.05558" lon="7.65578">
        <ele>326.5</ele>
        <time>2016-05-31T12:28:43Z</time>
      </trkpt>
      <trkpt lat="49.05567" lon="7.6556">
        <ele>328.91</ele>
        <time>2016-05-31T12:28:55Z</time>
      </trkpt>
      <trkpt lat="49.05568" lon="7.65556">
        <ele>329.39</ele>
        <time>2016-05-31T12:28:58Z</time>
      </trkpt>
      <trkpt lat="49.05572" lon="7.6554">
        <ele>332.27</ele>
        <time>2016-05-31T12:29:06Z</time>
      </trkpt>
      <trkpt lat="49.05572" lon="7.65537">
        <ele>332.75</ele>
        <time>2016-05-31T12:29:07Z</time>
      </trkpt>
      <trkpt lat="49.05573" lon="7.65535">
        <ele>332.27</ele>
        <time>2016-05-31T12:29:08Z</time>
      </trkpt>
      <trkpt lat="49.05574" lon="7.65533">
        <ele>332.27</ele>
        <time>2016-05-31T12:29:09Z</time>
      </trkpt>
      <trkpt lat="49.05575" lon="7.6553">
        <ele>332.27</ele>
        <time>2016-05-31T12:29:10Z</time>
      </trkpt>
      <trkpt lat="49.05575" lon="7.65528">
        <ele>332.27</ele>
        <time>2016-05-31T12:29:11Z</time>
      </trkpt>
      <trkpt lat="49.05579" lon="7.65514">
        <ele>329.39</ele>
        <time>2016-05-31T12:29:21Z</time>
      </trkpt>
      <trkpt lat="49.0558" lon="7.65512">
        <ele>329.39</ele>
        <time>2016-05-31T12:29:22Z</time>
      </trkpt>
      <trkpt lat="49.05585" lon="7.65487">
        <ele>331.31</ele>
        <time>2016-05-31T12:29:36Z</time>
      </trkpt>
      <trkpt lat="49.05579" lon="7.65464">
        <ele>330.35</ele>
        <time>2016-05-31T12:29:50Z</time>
      </trkpt>
      <trkpt lat="49.05579" lon="7.65455">
        <ele>329.39</ele>
        <time>2016-05-31T12:29:54Z</time>
      </trkpt>
      <trkpt lat="49.05575" lon="7.6544">
        <ele>328.43</ele>
        <time>2016-05-31T12:30:00Z</time>
      </trkpt>
      <trkpt lat="49.05571" lon="7.65421">
        <ele>330.35</ele>
        <time>2016-05-31T12:30:13Z</time>
      </trkpt>
      <trkpt lat="49.0557" lon="7.65398">
        <ele>331.79</ele>
        <time>2016-05-31T12:30:29Z</time>
      </trkpt>
      <trkpt lat="49.05562" lon="7.65383">
        <ele>331.31</ele>
        <time>2016-05-31T12:30:41Z</time>
      </trkpt>
      <trkpt lat="49.0556" lon="7.65387">
        <ele>329.87</ele>
        <time>2016-05-31T12:30:56Z</time>
      </trkpt>
      <trkpt lat="49.05568" lon="7.6539">
        <ele>323.62</ele>
        <time>2016-05-31T12:31:25Z</time>
      </trkpt>
      <trkpt lat="49.05573" lon="7.65393">
        <ele>322.66</ele>
        <time>2016-05-31T12:31:51Z</time>
      </trkpt>
      <trkpt lat="49.05565" lon="7.65386">
        <ele>322.66</ele>
        <time>2016-05-31T12:32:15Z</time>
      </trkpt>
      <trkpt lat="49.05565" lon="7.65388">
        <ele>328.91</ele>
        <time>2016-05-31T12:32:38Z</time>
      </trkpt>
      <trkpt lat="49.05567" lon="7.65385">
        <ele>327.95</ele>
        <time>2016-05-31T12:32:59Z</time>
      </trkpt>
      <trkpt lat="49.0557" lon="7.6539">
        <ele>327.95</ele>
        <time>2016-05-31T12:33:21Z</time>
      </trkpt>
      <trkpt lat="49.05573" lon="7.65386">
        <ele>325.54</ele>
        <time>2016-05-31T12:33:34Z</time>
      </trkpt>
      <trkpt lat="49.05565" lon="7.6536">
        <ele>321.22</ele>
        <time>2016-05-31T12:33:50Z</time>
      </trkpt>
      <trkpt lat="49.05563" lon="7.65352">
        <ele>318.33</ele>
        <time>2016-05-31T12:34:03Z</time>
      </trkpt>
      <trkpt lat="49.05563" lon="7.65351">
        <ele>316.89</ele>
        <time>2016-05-31T12:34:26Z</time>
      </trkpt>
      <trkpt lat="49.05561" lon="7.65349">
        <ele>320.26</ele>
        <time>2016-05-31T12:34:48Z</time>
      </trkpt>
      <trkpt lat="49.05567" lon="7.65344">
        <ele>319.78</ele>
        <time>2016-05-31T12:35:13Z</time>
      </trkpt>
      <trkpt lat="49.05572" lon="7.65336">
        <ele>317.85</ele>
        <time>2016-05-31T12:35:32Z</time>
      </trkpt>
      <trkpt lat="49.0557" lon="7.65335">
        <ele>321.22</ele>
        <time>2016-05-31T12:35:50Z</time>
      </trkpt>
      <trkpt lat="49.05569" lon="7.65331">
        <ele>319.3</ele>
        <time>2016-05-31T12:35:56Z</time>
      </trkpt>
      <trkpt lat="49.05567" lon="7.65309">
        <ele>316.89</ele>
        <time>2016-05-31T12:36:10Z</time>
      </trkpt>
      <trkpt lat="49.05567" lon="7.65289">
        <ele>314.97</ele>
        <time>2016-05-31T12:36:23Z</time>
      </trkpt>
      <trkpt lat="49.0556" lon="7.65273">
        <ele>312.09</ele>
        <time>2016-05-31T12:36:40Z</time>
      </trkpt>
      <trkpt lat="49.05548" lon="7.65264">
        <ele>309.68</ele>
        <time>2016-05-31T12:36:57Z</time>
      </trkpt>
      <trkpt lat="49.05534" lon="7.65259">
        <ele>306.8</ele>
        <time>2016-05-31T12:37:09Z</time>
      </trkpt>
      <trkpt lat="49.05519" lon="7.65247">
        <ele>302.95</ele>
        <time>2016-05-31T12:37:26Z</time>
      </trkpt>
      <trkpt lat="49.05506" lon="7.65239">
        <ele>299.11</ele>
        <time>2016-05-31T12:37:43Z</time>
      </trkpt>
      <trkpt lat="49.05499" lon="7.65256">
        <ele>300.07</ele>
        <time>2016-05-31T12:37:58Z</time>
      </trkpt>
      <trkpt lat="49.05493" lon="7.65273">
        <ele>297.18</ele>
        <time>2016-05-31T12:38:13Z</time>
      </trkpt>
      <trkpt lat="49.05493" lon="7.65275">
        <ele>297.67</ele>
        <time>2016-05-31T12:38:15Z</time>
      </trkpt>
      <trkpt lat="49.05484" lon="7.65305">
        <ele>294.78</ele>
        <time>2016-05-31T12:38:32Z</time>
      </trkpt>
      <trkpt lat="49.05477" lon="7.65339">
        <ele>295.74</ele>
        <time>2016-05-31T12:38:48Z</time>
      </trkpt>
      <trkpt lat="49.05475" lon="7.65373">
        <ele>294.3</ele>
        <time>2016-05-31T12:39:07Z</time>
      </trkpt>
      <trkpt lat="49.05475" lon="7.65403">
        <ele>287.57</ele>
        <time>2016-05-31T12:39:25Z</time>
      </trkpt>
      <trkpt lat="49.05475" lon="7.65434">
        <ele>286.13</ele>
        <time>2016-05-31T12:39:42Z</time>
      </trkpt>
      <trkpt lat="49.05469" lon="7.65464">
        <ele>288.53</ele>
        <time>2016-05-31T12:40:01Z</time>
      </trkpt>
      <trkpt lat="49.05457" lon="7.65505">
        <ele>289.01</ele>
        <time>2016-05-31T12:40:19Z</time>
      </trkpt>
      <trkpt lat="49.05459" lon="7.6553">
        <ele>291.42</ele>
        <time>2016-05-31T12:40:34Z</time>
      </trkpt>
      <trkpt lat="49.0546" lon="7.65546">
        <ele>292.38</ele>
        <time>2016-05-31T12:40:49Z</time>
      </trkpt>
      <trkpt lat="49.0546" lon="7.65557">
        <ele>292.86</ele>
        <time>2016-05-31T12:40:55Z</time>
      </trkpt>
      <trkpt lat="49.05464" lon="7.65572">
        <ele>296.7</ele>
        <time>2016-05-31T12:41:00Z</time>
      </trkpt>
      <trkpt lat="49.05466" lon="7.65574">
        <ele>297.18</ele>
        <time>2016-05-31T12:41:01Z</time>
      </trkpt>
      <trkpt lat="49.05473" lon="7.65591">
        <ele>302.47</ele>
        <time>2016-05-31T12:41:14Z</time>
      </trkpt>
      <trkpt lat="49.05476" lon="7.656">
        <ele>303.91</ele>
        <time>2016-05-31T12:41:19Z</time>
      </trkpt>
      <trkpt lat="49.05481" lon="7.65616">
        <ele>303.43</ele>
        <time>2016-05-31T12:41:31Z</time>
      </trkpt>
      <trkpt lat="49.05483" lon="7.65622">
        <ele>303.43</ele>
        <time>2016-05-31T12:41:35Z</time>
      </trkpt>
      <trkpt lat="49.05484" lon="7.65624">
        <ele>303.43</ele>
        <time>2016-05-31T12:41:36Z</time>
      </trkpt>
      <trkpt lat="49.05484" lon="7.65627">
        <ele>303.91</ele>
        <time>2016-05-31T12:41:37Z</time>
      </trkpt>
      <trkpt lat="49.05484" lon="7.65629">
        <ele>303.91</ele>
        <time>2016-05-31T12:41:38Z</time>
      </trkpt>
      <trkpt lat="49.05484" lon="7.65632">
        <ele>303.91</ele>
        <time>2016-05-31T12:41:39Z</time>
      </trkpt>
      <trkpt lat="49.05485" lon="7.65634">
        <ele>304.39</ele>
        <time>2016-05-31T12:41:40Z</time>
      </trkpt>
      <trkpt lat="49.05485" lon="7.65636">
        <ele>304.39</ele>
        <time>2016-05-31T12:41:41Z</time>
      </trkpt>
      <trkpt lat="49.05485" lon="7.65639">
        <ele>304.88</ele>
        <time>2016-05-31T12:41:42Z</time>
      </trkpt>
      <trkpt lat="49.05496" lon="7.65674">
        <ele>306.32</ele>
        <time>2016-05-31T12:41:55Z</time>
      </trkpt>
      <trkpt lat="49.05499" lon="7.6569">
        <ele>304.88</ele>
        <time>2016-05-31T12:42:10Z</time>
      </trkpt>
      <trkpt lat="49.05501" lon="7.65709">
        <ele>302.47</ele>
        <time>2016-05-31T12:42:21Z</time>
      </trkpt>
      <trkpt lat="49.05512" lon="7.65737">
        <ele>303.91</ele>
        <time>2016-05-31T12:42:38Z</time>
      </trkpt>
      <trkpt lat="49.05526" lon="7.65754">
        <ele>304.39</ele>
        <time>2016-05-31T12:42:47Z</time>
      </trkpt>
      <trkpt lat="49.05527" lon="7.65766">
        <ele>303.43</ele>
        <time>2016-05-31T12:42:58Z</time>
      </trkpt>
      <trkpt lat="49.05527" lon="7.65791">
        <ele>300.55</ele>
        <time>2016-05-31T12:43:10Z</time>
      </trkpt>
      <trkpt lat="49.05522" lon="7.65814">
        <ele>298.15</ele>
        <time>2016-05-31T12:43:22Z</time>
      </trkpt>
      <trkpt lat="49.05518" lon="7.65816">
        <ele>298.15</ele>
        <time>2016-05-31T12:43:27Z</time>
      </trkpt>
      <trkpt lat="49.05498" lon="7.65816">
        <ele>298.63</ele>
        <time>2016-05-31T12:43:42Z</time>
      </trkpt>
      <trkpt lat="49.05487" lon="7.65812">
        <ele>300.55</ele>
        <time>2016-05-31T12:43:56Z</time>
      </trkpt>
      <trkpt lat="49.0548" lon="7.65807">
        <ele>300.55</ele>
        <time>2016-05-31T12:44:01Z</time>
      </trkpt>
      <trkpt lat="49.05478" lon="7.65805">
        <ele>300.55</ele>
        <time>2016-05-31T12:44:02Z</time>
      </trkpt>
      <trkpt lat="49.05477" lon="7.65804">
        <ele>300.55</ele>
        <time>2016-05-31T12:44:03Z</time>
      </trkpt>
      <trkpt lat="49.05456" lon="7.65787">
        <ele>299.59</ele>
        <time>2016-05-31T12:44:16Z</time>
      </trkpt>
      <trkpt lat="49.05453" lon="7.65779">
        <ele>299.59</ele>
        <time>2016-05-31T12:44:23Z</time>
      </trkpt>
      <trkpt lat="49.05446" lon="7.65763">
        <ele>296.22</ele>
        <time>2016-05-31T12:44:35Z</time>
      </trkpt>
      <trkpt lat="49.05445" lon="7.65761">
        <ele>296.22</ele>
        <time>2016-05-31T12:44:36Z</time>
      </trkpt>
      <trkpt lat="49.05444" lon="7.6576">
        <ele>295.74</ele>
        <time>2016-05-31T12:44:37Z</time>
      </trkpt>
      <trkpt lat="49.05423" lon="7.6574">
        <ele>291.9</ele>
        <time>2016-05-31T12:44:53Z</time>
      </trkpt>
      <trkpt lat="49.05414" lon="7.65728">
        <ele>290.46</ele>
        <time>2016-05-31T12:45:02Z</time>
      </trkpt>
      <trkpt lat="49.05403" lon="7.65716">
        <ele>286.13</ele>
        <time>2016-05-31T12:45:13Z</time>
      </trkpt>
      <trkpt lat="49.054" lon="7.65708">
        <ele>284.21</ele>
        <time>2016-05-31T12:45:18Z</time>
      </trkpt>
      <trkpt lat="49.05399" lon="7.65706">
        <ele>283.73</ele>
        <time>2016-05-31T12:45:19Z</time>
      </trkpt>
      <trkpt lat="49.05392" lon="7.65696">
        <ele>280.36</ele>
        <time>2016-05-31T12:45:28Z</time>
      </trkpt>
      <trkpt lat="49.05391" lon="7.65695">
        <ele>279.88</ele>
        <time>2016-05-31T12:45:29Z</time>
      </trkpt>
      <trkpt lat="49.05384" lon="7.65692">
        <ele>276.04</ele>
        <time>2016-05-31T12:45:43Z</time>
      </trkpt>
      <trkpt lat="49.0538" lon="7.65682">
        <ele>278.44</ele>
        <time>2016-05-31T12:45:57Z</time>
      </trkpt>
      <trkpt lat="49.0538" lon="7.6568">
        <ele>276.04</ele>
        <time>2016-05-31T12:46:18Z</time>
      </trkpt>
      <trkpt lat="49.05363" lon="7.65664">
        <ele>276.52</ele>
        <time>2016-05-31T12:46:31Z</time>
      </trkpt>
      <trkpt lat="49.05347" lon="7.65653">
        <ele>275.07</ele>
        <time>2016-05-31T12:46:46Z</time>
      </trkpt>
      <trkpt lat="49.05339" lon="7.65639">
        <ele>279.4</ele>
        <time>2016-05-31T12:46:59Z</time>
      </trkpt>
      <trkpt lat="49.05332" lon="7.65628">
        <ele>280.84</ele>
        <time>2016-05-31T12:47:09Z</time>
      </trkpt>
      <trkpt lat="49.0533" lon="7.65627">
        <ele>280.84</ele>
        <time>2016-05-31T12:47:11Z</time>
      </trkpt>
      <trkpt lat="49.05329" lon="7.65626">
        <ele>280.84</ele>
        <time>2016-05-31T12:47:12Z</time>
      </trkpt>
      <trkpt lat="49.05327" lon="7.65626">
        <ele>280.84</ele>
        <time>2016-05-31T12:47:13Z</time>
      </trkpt>
      <trkpt lat="49.05326" lon="7.65625">
        <ele>280.84</ele>
        <time>2016-05-31T12:47:14Z</time>
      </trkpt>
      <trkpt lat="49.05324" lon="7.65625">
        <ele>280.84</ele>
        <time>2016-05-31T12:47:15Z</time>
      </trkpt>
      <trkpt lat="49.05322" lon="7.65624">
        <ele>280.84</ele>
        <time>2016-05-31T12:47:16Z</time>
      </trkpt>
      <trkpt lat="49.05321" lon="7.65624">
        <ele>280.84</ele>
        <time>2016-05-31T12:47:17Z</time>
      </trkpt>
      <trkpt lat="49.05309" lon="7.65606">
        <ele>282.28</ele>
        <time>2016-05-31T12:47:32Z</time>
      </trkpt>
      <trkpt lat="49.05308" lon="7.65599">
        <ele>284.69</ele>
        <time>2016-05-31T12:47:56Z</time>
      </trkpt>
      <trkpt lat="49.05309" lon="7.65601">
        <ele>288.53</ele>
        <time>2016-05-31T12:48:33Z</time>
      </trkpt>
      <trkpt lat="49.05307" lon="7.65596">
        <ele>289.97</ele>
        <time>2016-05-31T12:48:49Z</time>
      </trkpt>
      <trkpt lat="49.05291" lon="7.65588">
        <ele>289.97</ele>
        <time>2016-05-31T12:49:09Z</time>
      </trkpt>
      <trkpt lat="49.05277" lon="7.65582">
        <ele>285.17</ele>
        <time>2016-05-31T12:49:24Z</time>
      </trkpt>
      <trkpt lat="49.05264" lon="7.65593">
        <ele>279.4</ele>
        <time>2016-05-31T12:49:39Z</time>
      </trkpt>
      <trkpt lat="49.05254" lon="7.656">
        <ele>279.88</ele>
        <time>2016-05-31T12:49:51Z</time>
      </trkpt>
      <trkpt lat="49.05241" lon="7.65627">
        <ele>283.25</ele>
        <time>2016-05-31T12:50:05Z</time>
      </trkpt>
      <trkpt lat="49.05235" lon="7.65645">
        <ele>279.88</ele>
        <time>2016-05-31T12:50:22Z</time>
      </trkpt>
      <trkpt lat="49.05232" lon="7.6566">
        <ele>275.07</ele>
        <time>2016-05-31T12:50:37Z</time>
      </trkpt>
      <trkpt lat="49.05227" lon="7.6567">
        <ele>273.63</ele>
        <time>2016-05-31T12:50:44Z</time>
      </trkpt>
      <trkpt lat="49.05211" lon="7.65692">
        <ele>277.96</ele>
        <time>2016-05-31T12:50:58Z</time>
      </trkpt>
      <trkpt lat="49.05202" lon="7.65707">
        <ele>282.28</ele>
        <time>2016-05-31T12:51:12Z</time>
      </trkpt>
      <trkpt lat="49.05197" lon="7.65721">
        <ele>284.69</ele>
        <time>2016-05-31T12:51:24Z</time>
      </trkpt>
      <trkpt lat="49.0519" lon="7.65736">
        <ele>286.61</ele>
        <time>2016-05-31T12:51:35Z</time>
      </trkpt>
      <trkpt lat="49.05183" lon="7.65752">
        <ele>287.09</ele>
        <time>2016-05-31T12:51:44Z</time>
      </trkpt>
      <trkpt lat="49.05177" lon="7.6576">
        <ele>284.69</ele>
        <time>2016-05-31T12:53:13Z</time>
      </trkpt>
      <trkpt lat="49.05176" lon="7.65759">
        <ele>278.92</ele>
        <time>2016-05-31T12:53:31Z</time>
      </trkpt>
      <trkpt lat="49.05175" lon="7.65781">
        <ele>278.44</ele>
        <time>2016-05-31T12:54:04Z</time>
      </trkpt>
      <trkpt lat="49.05174" lon="7.65789">
        <ele>278.44</ele>
        <time>2016-05-31T12:54:13Z</time>
      </trkpt>
      <trkpt lat="49.05173" lon="7.65791">
        <ele>278.44</ele>
        <time>2016-05-31T12:54:14Z</time>
      </trkpt>
      <trkpt lat="49.05168" lon="7.65812">
        <ele>274.59</ele>
        <time>2016-05-31T12:54:27Z</time>
      </trkpt>
      <trkpt lat="49.05165" lon="7.65837">
        <ele>268.83</ele>
        <time>2016-05-31T12:54:41Z</time>
      </trkpt>
      <trkpt lat="49.0516" lon="7.65862">
        <ele>262.1</ele>
        <time>2016-05-31T12:54:54Z</time>
      </trkpt>
      <trkpt lat="49.05149" lon="7.65887">
        <ele>256.33</ele>
        <time>2016-05-31T12:55:09Z</time>
      </trkpt>
      <trkpt lat="49.05149" lon="7.65889">
        <ele>256.33</ele>
        <time>2016-05-31T12:55:10Z</time>
      </trkpt>
      <trkpt lat="49.05149" lon="7.6589">
        <ele>256.33</ele>
        <time>2016-05-31T12:55:11Z</time>
      </trkpt>
      <trkpt lat="49.05149" lon="7.65892">
        <ele>256.33</ele>
        <time>2016-05-31T12:55:12Z</time>
      </trkpt>
      <trkpt lat="49.05148" lon="7.65924">
        <ele>258.73</ele>
        <time>2016-05-31T12:55:30Z</time>
      </trkpt>
      <trkpt lat="49.05143" lon="7.65956">
        <ele>261.14</ele>
        <time>2016-05-31T12:55:48Z</time>
      </trkpt>
      <trkpt lat="49.05131" lon="7.65987">
        <ele>264.02</ele>
        <time>2016-05-31T12:56:07Z</time>
      </trkpt>
      <trkpt lat="49.05123" lon="7.66005">
        <ele>263.06</ele>
        <time>2016-05-31T12:56:22Z</time>
      </trkpt>
      <trkpt lat="49.05114" lon="7.66029">
        <ele>262.58</ele>
        <time>2016-05-31T12:56:35Z</time>
      </trkpt>
      <trkpt lat="49.05105" lon="7.66049">
        <ele>261.62</ele>
        <time>2016-05-31T12:56:49Z</time>
      </trkpt>
      <trkpt lat="49.05097" lon="7.66072">
        <ele>270.27</ele>
        <time>2016-05-31T12:57:03Z</time>
      </trkpt>
      <trkpt lat="49.05082" lon="7.66105">
        <ele>264.5</ele>
        <time>2016-05-31T12:57:19Z</time>
      </trkpt>
      <trkpt lat="49.05066" lon="7.66132">
        <ele>256.81</ele>
        <time>2016-05-31T12:57:39Z</time>
      </trkpt>
      <trkpt lat="49.05034" lon="7.66174">
        <ele>265.94</ele>
        <time>2016-05-31T12:57:57Z</time>
      </trkpt>
      <trkpt lat="49.05017" lon="7.66184">
        <ele>259.69</ele>
        <time>2016-05-31T12:58:16Z</time>
      </trkpt>
      <trkpt lat="49.04985" lon="7.66203">
        <ele>256.81</ele>
        <time>2016-05-31T12:58:39Z</time>
      </trkpt>
      <trkpt lat="49.04959" lon="7.66216">
        <ele>254.89</ele>
        <time>2016-05-31T12:58:58Z</time>
      </trkpt>
      <trkpt lat="49.04934" lon="7.66222">
        <ele>257.77</ele>
        <time>2016-05-31T12:59:18Z</time>
      </trkpt>
      <trkpt lat="49.04905" lon="7.66241">
        <ele>257.77</ele>
        <time>2016-05-31T12:59:42Z</time>
      </trkpt>
      <trkpt lat="49.04876" lon="7.66256">
        <ele>255.37</ele>
        <time>2016-05-31T13:00:06Z</time>
      </trkpt>
      <trkpt lat="49.04848" lon="7.6627">
        <ele>258.25</ele>
        <time>2016-05-31T13:00:27Z</time>
      </trkpt>
      <trkpt lat="49.04829" lon="7.66273">
        <ele>257.29</ele>
        <time>2016-05-31T13:00:45Z</time>
      </trkpt>
      <trkpt lat="49.04824" lon="7.66277">
        <ele>250.56</ele>
        <time>2016-05-31T13:01:21Z</time>
      </trkpt>
      <trkpt lat="49.04808" lon="7.66297">
        <ele>263.54</ele>
        <time>2016-05-31T13:02:30Z</time>
      </trkpt>
      <trkpt lat="49.04791" lon="7.66298">
        <ele>264.5</ele>
        <time>2016-05-31T13:02:54Z</time>
      </trkpt>
      <trkpt lat="49.04775" lon="7.66298">
        <ele>265.46</ele>
        <time>2016-05-31T13:03:14Z</time>
      </trkpt>
      <trkpt lat="49.04762" lon="7.66294">
        <ele>263.06</ele>
        <time>2016-05-31T13:03:35Z</time>
      </trkpt>
      <trkpt lat="49.04732" lon="7.66298">
        <ele>260.17</ele>
        <time>2016-05-31T13:03:55Z</time>
      </trkpt>
      <trkpt lat="49.04714" lon="7.66296">
        <ele>259.21</ele>
        <time>2016-05-31T13:04:14Z</time>
      </trkpt>
      <trkpt lat="49.04692" lon="7.663">
        <ele>261.14</ele>
        <time>2016-05-31T13:04:33Z</time>
      </trkpt>
      <trkpt lat="49.04664" lon="7.66303">
        <ele>263.54</ele>
        <time>2016-05-31T13:04:50Z</time>
      </trkpt>
      <trkpt lat="49.04631" lon="7.66311">
        <ele>267.38</ele>
        <time>2016-05-31T13:05:13Z</time>
      </trkpt>
      <trkpt lat="49.04605" lon="7.66308">
        <ele>265.46</ele>
        <time>2016-05-31T13:05:32Z</time>
      </trkpt>
      <trkpt lat="49.04584" lon="7.66309">
        <ele>260.65</ele>
        <time>2016-05-31T13:05:50Z</time>
      </trkpt>
      <trkpt lat="49.04565" lon="7.66306">
        <ele>259.21</ele>
        <time>2016-05-31T13:06:07Z</time>
      </trkpt>
      <trkpt lat="49.04546" lon="7.66307">
        <ele>258.25</ele>
        <time>2016-05-31T13:06:26Z</time>
      </trkpt>
      <trkpt lat="49.0453" lon="7.6631">
        <ele>256.81</ele>
        <time>2016-05-31T13:07:20Z</time>
      </trkpt>
      <trkpt lat="49.0452" lon="7.66312">
        <ele>262.1</ele>
        <time>2016-05-31T13:08:20Z</time>
      </trkpt>
      <trkpt lat="49.04505" lon="7.66309">
        <ele>258.73</ele>
        <time>2016-05-31T13:08:40Z</time>
      </trkpt>
      <trkpt lat="49.04487" lon="7.66316">
        <ele>254.41</ele>
        <time>2016-05-31T13:08:59Z</time>
      </trkpt>
      <trkpt lat="49.04469" lon="7.66318">
        <ele>255.37</ele>
        <time>2016-05-31T13:09:20Z</time>
      </trkpt>
      <trkpt lat="49.04442" lon="7.66332">
        <ele>259.69</ele>
        <time>2016-05-31T13:09:40Z</time>
      </trkpt>
      <trkpt lat="49.04429" lon="7.66342">
        <ele>261.14</ele>
        <time>2016-05-31T13:09:58Z</time>
      </trkpt>
      <trkpt lat="49.04412" lon="7.66352">
        <ele>261.14</ele>
        <time>2016-05-31T13:10:18Z</time>
      </trkpt>
      <trkpt lat="49.04398" lon="7.66364">
        <ele>262.58</ele>
        <time>2016-05-31T13:10:39Z</time>
      </trkpt>
      <trkpt lat="49.04386" lon="7.66367">
        <ele>261.14</ele>
        <time>2016-05-31T13:10:58Z</time>
      </trkpt>
      <trkpt lat="49.04372" lon="7.66377">
        <ele>261.14</ele>
        <time>2016-05-31T13:11:18Z</time>
      </trkpt>
      <trkpt lat="49.0436" lon="7.66385">
        <ele>259.69</ele>
        <time>2016-05-31T13:11:40Z</time>
      </trkpt>
      <trkpt lat="49.04347" lon="7.66394">
        <ele>259.21</ele>
        <time>2016-05-31T13:11:58Z</time>
      </trkpt>
      <trkpt lat="49.04323" lon="7.6641">
        <ele>260.17</ele>
        <time>2016-05-31T13:12:19Z</time>
      </trkpt>
      <trkpt lat="49.0432" lon="7.66413">
        <ele>260.17</ele>
        <time>2016-05-31T13:12:47Z</time>
      </trkpt>
      <trkpt lat="49.04303" lon="7.66426">
        <ele>258.73</ele>
        <time>2016-05-31T13:13:06Z</time>
      </trkpt>
      <trkpt lat="49.04303" lon="7.66433">
        <ele>258.73</ele>
        <time>2016-05-31T13:13:23Z</time>
      </trkpt>
      <trkpt lat="49.04291" lon="7.66438">
        <ele>256.81</ele>
        <time>2016-05-31T13:13:40Z</time>
      </trkpt>
      <trkpt lat="49.04271" lon="7.66447">
        <ele>254.41</ele>
        <time>2016-05-31T13:13:57Z</time>
      </trkpt>
      <trkpt lat="49.04272" lon="7.66444">
        <ele>249.12</ele>
        <time>2016-05-31T13:16:12Z</time>
      </trkpt>
    </trkseg>
  </trk>
</gpx>